Time;durP1;ratioP1;P1;durP2;ratioP2;P2;SDS_P1;SDS_P2;PMS_P1;PMS_P2;Temp;Humidity;BMP_temperature;BMP_pressure;BME280_temperature;BME280_humidity;BME280_pressure;Samples;Min_cycle;Max_cycle;Signal;HPM_P1;HPM_P2
2024/03/07 00:00:18;;;;;;;39.33;28.57;;;;;7.70;96785.00;;;;4979036;28;20219;-70
2024/03/07 00:03:07;;;;;;;24.80;22.37;;;;;7.60;96783.00;;;;4967287;28;20290;-71
2024/03/07 00:05:56;;;;;;;22.73;20.70;;;;;8.00;96779.00;;;;4967305;28;20211;-71
2024/03/07 00:08:48;;;;;;;18.30;15.33;;;;;8.00;96781.00;;;;4974824;28;20215;-74
2024/03/07 00:11:38;;;;;;;26.00;20.30;;;;;7.40;96776.00;;;;4971364;28;20214;-72
2024/03/07 00:14:27;;;;;;;19.17;17.33;;;;;7.90;96772.00;;;;4966769;28;20618;-72
2024/03/07 00:17:17;;;;;;;18.60;16.90;;;;;7.90;96786.00;;;;4967675;28;20199;-72
2024/03/07 00:20:09;;;;;;;30.17;20.00;;;;;7.90;96771.00;;;;4973512;28;20234;-72
2024/03/07 00:22:58;;;;;;;18.13;16.33;;;;;7.80;96768.00;;;;4967448;28;20764;-73
2024/03/07 00:25:49;;;;;;;20.10;12.97;;;;;7.80;96758.00;;;;4965142;28;20215;-73
2024/03/07 00:28:39;;;;;;;26.83;15.73;;;;;7.70;96778.00;;;;4967132;28;20240;-74
2024/03/07 00:31:29;;;;;;;18.87;13.27;;;;;7.70;96774.00;;;;4975143;28;20766;-74
2024/03/07 00:34:19;;;;;;;13.73;12.03;;;;;7.80;96767.00;;;;4964403;28;20223;-72
2024/03/07 00:37:12;;;;;;;15.23;10.20;;;;;7.60;96776.00;;;;4970334;28;20250;-74
2024/03/07 00:40:01;;;;;;;15.37;9.53;;;;;7.60;96765.00;;;;4975336;28;20234;-74
2024/03/07 00:42:52;;;;;;;12.73;11.47;;;;;7.60;96770.00;;;;4978516;28;20217;-74
2024/03/07 00:45:42;;;;;;;21.63;13.43;;;;;7.50;96766.00;;;;4972004;28;20205;-73
2024/03/07 00:48:31;;;;;;;27.00;16.30;;;;;7.40;96768.00;;;;4965560;28;20223;-73
2024/03/07 00:51:20;;;;;;;16.80;13.43;;;;;7.40;96753.00;;;;4975300;28;20212;-73
2024/03/07 00:54:09;;;;;;;13.20;11.80;;;;;7.30;96757.00;;;;4977040;28;20614;-73
2024/03/07 00:56:58;;;;;;;11.57;7.87;;;;;7.30;96762.00;;;;4966626;28;20211;-72
2024/03/07 00:59:49;;;;;;;13.57;11.50;;;;;7.20;96762.00;;;;4972259;28;20240;-73
2024/03/07 01:02:38;;;;;;;28.50;15.67;;;;;7.20;96759.00;;;;4977013;28;20576;-73
2024/03/07 01:05:27;;;;;;;20.23;13.80;;;;;7.20;96765.00;;;;4959707;28;20980;-73
2024/03/07 01:08:17;;;;;;;14.30;10.53;;;;;7.30;96769.00;;;;4965032;28;20591;-74
2024/03/07 01:11:09;;;;;;;13.63;9.37;;;;;7.20;96767.00;;;;4975515;28;20211;-73
2024/03/07 01:13:58;;;;;;;14.30;10.20;;;;;6.90;96755.00;;;;4980615;28;20331;-73
2024/03/07 01:16:49;;;;;;;12.47;7.37;;;;;7.10;96755.00;;;;4960442;28;20222;-73
2024/03/07 01:19:38;;;;;;;17.63;8.77;;;;;7.10;96757.00;;;;4963081;28;20296;-73
2024/03/07 01:22:27;;;;;;;12.87;6.40;;;;;7.00;96761.00;;;;4963778;28;20716;-73
2024/03/07 01:25:16;;;;;;;22.33;9.20;;;;;7.10;96753.00;;;;4979251;28;20728;-73
2024/03/07 01:28:06;;;;;;;13.67;7.93;;;;;6.90;96751.00;;;;4971065;28;20604;-73
2024/03/07 01:30:55;;;;;;;10.53;5.77;;;;;7.10;96750.00;;;;4971728;28;20200;-73
2024/03/07 01:33:46;;;;;;;20.70;9.70;;;;;7.20;96747.00;;;;4975586;28;20237;-73
2024/03/07 01:36:35;;;;;;;18.50;9.20;;;;;7.10;96736.00;;;;4976285;28;20211;-73
2024/03/07 01:39:24;;;;;;;10.93;7.23;;;;;7.00;96744.00;;;;4967305;28;20237;-73
2024/03/07 01:42:13;;;;;;;15.43;8.60;;;;;7.00;96744.00;;;;4974889;28;20265;-74
2024/03/07 01:45:02;;;;;;;20.40;10.17;;;;;7.00;96745.00;;;;4964313;28;20696;-73
2024/03/07 01:47:51;;;;;;;9.23;7.33;;;;;6.90;96730.00;;;;4965861;28;20211;-73
2024/03/07 01:50:42;;;;;;;20.07;9.53;;;;;6.80;96734.00;;;;4968891;28;20669;-73
2024/03/07 01:53:32;;;;;;;16.33;7.90;;;;;6.80;96736.00;;;;4975150;28;20230;-74
2024/03/07 01:56:21;;;;;;;15.93;8.23;;;;;6.70;96741.00;;;;4965652;28;20607;-69
2024/03/07 01:59:11;;;;;;;12.87;6.23;;;;;6.70;96741.00;;;;4952379;28;20282;-73
2024/03/07 02:02:02;;;;;;;10.93;6.27;;;;;6.10;96725.00;;;;4966884;28;20576;-74
2024/03/07 02:04:51;;;;;;;17.93;8.27;;;;;6.30;96736.00;;;;4971723;28;20223;-70
2024/03/07 02:07:41;;;;;;;20.93;8.43;;;;;6.20;96726.00;;;;4967082;28;20211;-74
2024/03/07 02:10:30;;;;;;;18.90;8.37;;;;;6.20;96732.00;;;;4968218;28;20582;-74
2024/03/07 02:13:19;;;;;;;9.77;4.80;;;;;6.10;96731.00;;;;4961053;28;20228;-73
2024/03/07 02:16:09;;;;;;;11.30;6.47;;;;;5.80;96715.00;;;;4967408;28;20211;-74
2024/03/07 02:18:59;;;;;;;14.97;8.27;;;;;5.60;96722.00;;;;4964540;28;20685;-74
2024/03/07 02:21:49;;;;;;;16.80;8.67;;;;;5.60;96710.00;;;;4973991;28;20210;-75
2024/03/07 02:24:38;;;;;;;21.83;12.00;;;;;5.40;96697.00;;;;4971472;28;20689;-74
2024/03/07 02:27:27;;;;;;;15.57;12.17;;;;;5.10;96715.00;;;;4963758;28;20724;-73
2024/03/07 02:30:18;;;;;;;31.70;19.77;;;;;5.30;96713.00;;;;4963224;28;20693;-74
2024/03/07 02:33:09;;;;;;;16.83;15.17;;;;;5.10;96702.00;;;;4972970;28;20202;-73
2024/03/07 02:35:58;;;;;;;19.37;17.37;;;;;4.80;96711.00;;;;4965210;28;20238;-73
2024/03/07 02:38:49;;;;;;;23.57;17.03;;;;;4.70;96709.00;;;;4969916;28;20207;-72
2024/03/07 02:41:38;;;;;;;25.30;19.40;;;;;4.70;96710.00;;;;4965171;28;20204;-73
2024/03/07 02:44:27;;;;;;;21.53;19.37;;;;;4.80;96706.00;;;;4969201;28;20951;-73
2024/03/07 02:47:17;;;;;;;24.03;18.80;;;;;4.50;96712.00;;;;4972740;28;20211;-74
2024/03/07 02:50:07;;;;;;;22.27;19.87;;;;;4.40;96704.00;;;;4972080;28;20206;-74
2024/03/07 02:52:56;;;;;;;20.60;18.60;;;;;4.70;96707.00;;;;4967622;28;20214;-74
2024/03/07 02:55:46;;;;;;;26.33;23.17;;;;;4.60;96709.00;;;;4960485;28;20711;-72
2024/03/07 02:58:36;;;;;;;30.37;23.13;;;;;4.90;96711.00;;;;4974172;28;20205;-72
2024/03/07 03:01:25;;;;;;;20.20;18.23;;;;;4.80;96706.00;;;;4974515;28;20230;-72
2024/03/07 03:04:14;;;;;;;23.17;20.70;;;;;5.00;96705.00;;;;4968983;28;20227;-74
2024/03/07 03:07:04;;;;;;;20.37;18.30;;;;;4.90;96705.00;;;;4964405;28;20203;-72
2024/03/07 03:09:53;;;;;;;26.03;23.10;;;;;5.30;96716.00;;;;4970614;28;20207;-72
2024/03/07 03:12:44;;;;;;;29.47;23.83;;;;;5.50;96711.00;;;;4966009;28;20211;-74
2024/03/07 03:15:33;;;;;;;31.93;25.83;;;;;5.80;96717.00;;;;4974722;28;20212;-72
2024/03/07 03:18:22;;;;;;;25.30;22.83;;;;;5.90;96711.00;;;;4961080;28;20212;-74
2024/03/07 03:21:11;;;;;;;26.83;24.30;;;;;5.70;96716.00;;;;4967805;28;20251;-72
2024/03/07 03:24:02;;;;;;;23.07;20.70;;;;;5.50;96712.00;;;;4970714;28;20253;-73
2024/03/07 03:26:51;;;;;;;25.00;22.63;;;;;5.20;96706.00;;;;4960798;28;20207;-72
2024/03/07 03:29:41;;;;;;;30.43;23.27;;;;;5.60;96711.00;;;;4975432;28;20207;-72
2024/03/07 03:32:31;;;;;;;21.83;19.73;;;;;5.50;96707.00;;;;4962953;28;20203;-74
2024/03/07 03:35:20;;;;;;;22.53;20.53;;;;;5.70;96706.00;;;;4968116;28;20259;-72
2024/03/07 03:38:09;;;;;;;23.60;21.60;;;;;5.80;96711.00;;;;4963164;28;20621;-75
2024/03/07 03:40:58;;;;;;;23.80;21.57;;;;;5.90;96720.00;;;;4961072;28;20224;-73
2024/03/07 03:43:48;;;;;;;28.00;22.23;;;;;5.90;96709.00;;;;4976132;28;20701;-73
2024/03/07 03:46:38;;;;;;;26.70;22.80;;;;;6.10;96721.00;;;;4967243;28;20639;-73
2024/03/07 03:49:28;;;;;;;25.10;22.67;;;;;6.10;96716.00;;;;4956160;28;20211;-73
2024/03/07 03:52:17;;;;;;;26.70;24.17;;;;;6.00;96729.00;;;;4964033;28;21075;-73
2024/03/07 03:55:09;;;;;;;33.83;25.97;;;;;5.80;96720.00;;;;4959133;28;20231;-73
2024/03/07 03:57:58;;;;;;;22.80;20.60;;;;;6.40;96717.00;;;;4967931;28;20223;-73
2024/03/07 04:00:47;;;;;;;27.43;23.27;;;;;6.60;96725.00;;;;4969636;28;20649;-73
2024/03/07 04:03:38;;;;;;;35.23;28.53;;;;;6.60;96718.00;;;;4966993;28;20242;-72
2024/03/07 04:06:27;;;;;;;29.63;27.10;;;;;6.80;96717.00;;;;4969972;28;20219;-74
2024/03/07 04:09:17;;;;;;;31.90;29.00;;;;;6.80;96723.00;;;;4973976;28;20202;-73
2024/03/07 04:12:06;;;;;;;34.77;31.63;;;;;6.80;96721.00;;;;4970969;28;20701;-73
2024/03/07 04:14:55;;;;;;;31.47;28.63;;;;;6.90;96712.00;;;;4970291;28;20653;-72
2024/03/07 04:17:46;;;;;;;41.23;36.83;;;;;7.00;96724.00;;;;4963603;28;20696;-73
2024/03/07 04:20:36;;;;;;;46.00;41.20;;;;;7.00;96722.00;;;;4970008;28;20242;-73
2024/03/07 04:23:25;;;;;;;43.10;38.83;;;;;6.90;96709.00;;;;4974301;28;20606;-73
2024/03/07 04:26:15;;;;;;;45.80;40.93;;;;;6.90;96719.00;;;;4970455;28;20686;-72
2024/03/07 04:29:04;;;;;;;41.97;38.07;;;;;6.80;96723.00;;;;4968048;28;20211;-74
2024/03/07 04:31:53;;;;;;;40.43;36.57;;;;;6.90;96732.00;;;;4970511;28;20211;-73
2024/03/07 04:34:42;;;;;;;53.20;46.30;;;;;6.90;96724.00;;;;4963815;28;20238;-73
2024/03/07 04:37:34;;;;;;;45.73;41.10;;;;;7.00;96728.00;;;;4978354;28;20214;-72
2024/03/07 04:40:23;;;;;;;68.23;51.70;;;;;6.90;96729.00;;;;4979568;28;20207;-73
2024/03/07 04:43:12;;;;;;;44.57;40.20;;;;;7.00;96728.00;;;;4971070;28;20208;-73
2024/03/07 04:46:01;;;;;;;46.23;41.63;;;;;7.10;96736.00;;;;4965862;28;20215;-72
2024/03/07 04:48:51;;;;;;;35.23;31.50;;;;;7.20;96741.00;;;;4971632;28;20208;-72
2024/03/07 04:51:40;;;;;;;30.37;27.27;;;;;7.20;96736.00;;;;4976835;28;20323;-72
2024/03/07 04:54:32;;;;;;;41.00;36.90;;;;;7.40;96751.00;;;;4964555;28;20318;-73
2024/03/07 04:57:21;;;;;;;53.80;46.93;;;;;7.50;96745.00;;;;4976967;28;20213;-73
2024/03/07 05:00:13;;;;;;;32.83;29.93;;;;;7.50;96743.00;;;;4971342;28;20219;-72
2024/03/07 05:03:04;;;;;;;28.07;25.30;;;;;7.50;96747.00;;;;4967642;28;20599;-73
2024/03/07 05:05:53;;;;;;;23.17;21.00;;;;;7.50;96753.00;;;;4976093;28;20200;-72
2024/03/07 05:08:43;;;;;;;36.87;26.87;;;;;7.50;96750.00;;;;4967847;28;20222;-74
2024/03/07 05:11:35;;;;;;;29.47;26.03;;;;;7.60;96757.00;;;;4961790;28;20234;-72
2024/03/07 05:14:25;;;;;;;33.83;30.37;;;;;7.50;96759.00;;;;4968355;28;20242;-72
2024/03/07 05:17:14;;;;;;;34.23;31.30;;;;;7.60;96763.00;;;;4965701;28;20219;-73
2024/03/07 05:20:09;;;;;;;45.93;40.13;;;;;7.70;96758.00;;;;4971947;28;20211;-73
2024/03/07 05:22:58;;;;;;;35.27;32.23;;;;;7.90;96767.00;;;;4971747;28;20219;-72
2024/03/07 05:25:49;;;;;;;40.67;36.67;;;;;7.80;96761.00;;;;4966246;28;20683;-73
2024/03/07 05:28:39;;;;;;;40.50;34.97;;;;;7.90;96780.00;;;;4968763;28;20215;-73
2024/03/07 05:31:29;;;;;;;39.47;35.87;;;;;7.90;96776.00;;;;4969194;28;20211;-73
2024/03/07 05:34:19;;;;;;;34.60;31.40;;;;;8.00;96774.00;;;;4972570;28;20223;-73
2024/03/07 05:37:08;;;;;;;35.87;32.00;;;;;8.00;96783.00;;;;4968404;28;20600;-72
2024/03/07 05:39:57;;;;;;;44.77;40.17;;;;;7.90;96776.00;;;;4970188;28;20703;-72
2024/03/07 05:42:46;;;;;;;56.60;48.73;;;;;8.00;96776.00;;;;4968579;28;20250;-72
2024/03/07 05:45:37;;;;;;;41.37;37.10;;;;;8.10;96789.00;;;;4972191;28;20211;-72
2024/03/07 05:48:26;;;;;;;33.57;30.67;;;;;8.10;96781.00;;;;4968466;28;20215;-73
2024/03/07 05:51:15;;;;;;;33.17;30.23;;;;;8.20;96794.00;;;;4967707;28;20222;-73
2024/03/07 05:54:06;;;;;;;36.40;33.53;;;;;8.10;96788.00;;;;4971542;28;20709;-72
2024/03/07 05:56:55;;;;;;;42.67;38.30;;;;;8.10;96789.00;;;;4966511;28;20775;-74
2024/03/07 05:59:46;;;;;;;49.87;44.63;;;;;8.20;96796.00;;;;4969002;28;20240;-72
2024/03/07 06:02:37;;;;;;;41.63;31.53;;;;;8.20;96801.00;;;;4962214;28;20245;-73
2024/03/07 06:05:26;;;;;;;38.97;35.00;;;;;8.20;96804.00;;;;4968618;28;20214;-72
2024/03/07 06:08:17;;;;;;;33.93;31.07;;;;;8.20;96810.00;;;;4968319;28;20207;-72
2024/03/07 06:11:06;;;;;;;41.90;37.37;;;;;8.20;96805.00;;;;4966980;28;20794;-72
2024/03/07 06:13:55;;;;;;;93.87;64.07;;;;;8.20;96807.00;;;;4953859;28;20227;-74
2024/03/07 06:16:44;;;;;;;42.77;38.17;;;;;8.40;96815.00;;;;4948140;28;20603;-72
2024/03/07 06:19:35;;;;;;;39.53;35.80;;;;;8.40;96815.00;;;;4966712;28;20203;-73
2024/03/07 06:22:24;;;;;;;43.27;39.23;;;;;8.40;96812.00;;;;4968160;28;20239;-72
2024/03/07 06:25:19;;;;;;;51.13;45.67;;;;;8.50;96817.00;;;;4969038;28;20231;-72
2024/03/07 06:28:10;;;;;;;42.03;38.43;;;;;8.50;96819.00;;;;4966968;28;20756;-74
2024/03/07 06:31:04;;;;;;;44.57;40.30;;;;;8.50;96831.00;;;;4954124;28;20207;-73
2024/03/07 06:33:53;;;;;;;36.23;33.30;;;;;8.60;96827.00;;;;4967172;28;20234;-70
2024/03/07 06:36:43;;;;;;;53.80;46.33;;;;;8.70;96822.00;;;;4973464;28;20222;-70
2024/03/07 06:39:32;;;;;;;25.73;22.40;;;;;8.90;96829.00;;;;4978255;28;20214;-70
2024/03/07 06:42:22;;;;;;;159.20;75.50;;;;;8.90;96834.00;;;;4911395;28;20219;-70
2024/03/07 06:45:12;;;;;;;136.63;57.50;;;;;9.00;96836.00;;;;4917109;28;20298;-71
2024/03/07 06:48:01;;;;;;;149.63;66.33;;;;;9.00;96840.00;;;;4929097;28;20200;-72
2024/03/07 06:50:52;;;;;;;162.23;71.23;;;;;9.00;96841.00;;;;4912893;28;20321;-72
2024/03/07 06:53:43;;;;;;;159.57;79.37;;;;;9.10;96831.00;;;;4921144;28;20226;-71
2024/03/07 06:56:32;;;;;;;127.20;57.47;;;;;9.10;96824.00;;;;4923700;28;21622;-70
2024/03/07 06:59:22;;;;;;;171.73;78.33;;;;;9.30;96826.00;;;;4917501;28;20207;-71
2024/03/07 07:02:12;;;;;;;109.67;52.53;;;;;9.20;96831.00;;;;4929310;28;21031;-69
2024/03/07 07:05:01;;;;;;;162.33;76.80;;;;;9.50;96837.00;;;;4932149;28;20306;-70
2024/03/07 07:07:50;;;;;;;126.33;61.30;;;;;9.40;96836.00;;;;4936132;28;20669;-67
2024/03/07 07:10:42;;;;;;;147.90;78.23;;;;;9.50;96838.00;;;;4931702;28;20207;-70
2024/03/07 07:13:32;;;;;;;136.23;62.73;;;;;9.80;96850.00;;;;4930769;28;20234;-70
2024/03/07 07:16:21;;;;;;;193.40;101.30;;;;;9.90;96842.00;;;;4927734;28;20202;-69
2024/03/07 07:19:12;;;;;;;136.90;70.10;;;;;9.90;96840.00;;;;4932706;28;20210;-69
2024/03/07 07:22:02;;;;;;;155.60;82.80;;;;;9.80;96843.00;;;;4931750;28;20215;-70
2024/03/07 07:24:51;;;;;;;37.10;27.50;;;;;9.90;96843.00;;;;4954797;28;20728;-70
2024/03/07 07:27:45;;;;;;;37.37;31.23;;;;;9.90;96846.00;;;;4969529;28;20203;-71
2024/03/07 07:30:34;;;;;;;32.33;29.37;;;;;9.70;96844.00;;;;4953955;28;21051;-71
2024/03/07 07:33:23;;;;;;;25.47;23.33;;;;;9.60;96846.00;;;;4969062;28;20227;-70
2024/03/07 07:36:13;;;;;;;27.17;24.80;;;;;9.80;96850.00;;;;4964663;28;20214;-70
2024/03/07 07:39:03;;;;;;;29.37;27.40;;;;;9.80;96850.00;;;;4966802;28;20203;-70
2024/03/07 07:41:52;;;;;;;33.13;30.30;;;;;9.70;96841.00;;;;4969810;28;20712;-70
2024/03/07 07:44:43;;;;;;;38.40;34.40;;;;;9.60;96844.00;;;;4974395;28;20226;-68
2024/03/07 07:47:32;;;;;;;44.23;40.07;;;;;9.90;96845.00;;;;4977088;28;20203;-71
2024/03/07 07:50:24;;;;;;;44.77;38.77;;;;;9.70;96844.00;;;;4973828;28;20203;-71
2024/03/07 07:53:14;;;;;;;34.27;31.33;;;;;10.00;96832.00;;;;4972833;28;20207;-69
2024/03/07 07:56:03;;;;;;;40.63;36.80;;;;;10.10;96830.00;;;;4974667;28;20206;-70
2024/03/07 07:58:52;;;;;;;45.93;41.83;;;;;10.20;96827.00;;;;4972078;28;20222;-70
2024/03/07 08:01:43;;;;;;;34.17;27.77;;;;;10.10;96833.00;;;;4974298;28;20210;-68
2024/03/07 08:04:32;;;;;;;27.00;24.63;;;;;10.60;96837.00;;;;4980320;28;20230;-70
2024/03/07 08:07:21;;;;;;;31.07;28.67;;;;;11.00;96840.00;;;;4976282;28;20674;-71
2024/03/07 08:10:10;;;;;;;24.77;23.00;;;;;11.10;96835.00;;;;4974916;28;20219;-71
2024/03/07 08:13:01;;;;;;;24.77;22.53;;;;;11.40;96828.00;;;;4979703;28;20578;-70
2024/03/07 08:15:50;;;;;;;37.47;33.63;;;;;11.80;96837.00;;;;4981164;28;20226;-70
2024/03/07 08:18:40;;;;;;;35.23;30.67;;;;;11.50;96824.00;;;;4981817;28;20211;-71
2024/03/07 08:21:31;;;;;;;29.30;26.77;;;;;11.10;96828.00;;;;4970163;28;20214;-71
2024/03/07 08:24:20;;;;;;;31.93;29.07;;;;;11.60;96839.00;;;;4973231;28;20713;-71
2024/03/07 08:27:11;;;;;;;37.77;34.77;;;;;11.90;96833.00;;;;4965104;28;20226;-71
2024/03/07 08:30:00;;;;;;;34.50;31.33;;;;;11.90;96838.00;;;;4967540;28;20205;-70
2024/03/07 08:32:51;;;;;;;41.30;37.20;;;;;10.80;96815.00;;;;4974514;28;20216;-70
2024/03/07 08:35:42;;;;;;;43.70;39.60;;;;;11.60;96834.00;;;;4969809;28;20196;-70
2024/03/07 08:38:33;;;;;;;42.20;38.97;;;;;11.90;96842.00;;;;4973255;28;20207;-70
2024/03/07 08:41:22;;;;;;;46.33;42.97;;;;;11.70;96846.00;;;;4988436;28;20771;-69
2024/03/07 08:44:13;;;;;;;42.87;39.47;;;;;11.40;96835.00;;;;4976120;28;20231;-70
2024/03/07 08:47:02;;;;;;;45.27;41.93;;;;;11.50;96845.00;;;;4977059;28;20224;-70
2024/03/07 08:49:51;;;;;;;41.90;37.90;;;;;11.50;96840.00;;;;4980902;28;20576;-70
2024/03/07 08:52:42;;;;;;;40.77;37.07;;;;;11.40;96840.00;;;;4976441;28;20628;-70
2024/03/07 08:55:32;;;;;;;41.50;38.03;;;;;11.50;96851.00;;;;4981390;28;20200;-70
2024/03/07 08:58:21;;;;;;;35.57;32.60;;;;;11.40;96849.00;;;;4974424;28;20211;-70
2024/03/07 09:01:10;;;;;;;35.77;33.70;;;;;10.90;96844.00;;;;4977882;28;20223;-69
2024/03/07 09:03:59;;;;;;;31.50;29.37;;;;;10.40;96839.00;;;;4973401;28;20231;-70
2024/03/07 09:06:48;;;;;;;45.77;41.10;;;;;11.60;96837.00;;;;4985671;28;20220;-67
2024/03/07 09:09:39;;;;;;;45.90;41.70;;;;;11.40;96837.00;;;;4975309;28;20595;-70
2024/03/07 09:12:28;;;;;;;44.83;41.40;;;;;11.40;96838.00;;;;4983009;28;20234;-69
2024/03/07 09:15:18;;;;;;;48.50;43.87;;;;;11.10;96841.00;;;;4979323;28;20256;-71
2024/03/07 09:18:08;;;;;;;46.37;42.80;;;;;11.60;96847.00;;;;4983774;28;20217;-68
2024/03/07 09:20:57;;;;;;;37.80;34.97;;;;;12.00;96841.00;;;;4978204;28;20200;-68
2024/03/07 09:23:46;;;;;;;37.37;32.20;;;;;11.80;96843.00;;;;4985890;28;20227;-68
2024/03/07 09:26:37;;;;;;;37.07;34.23;;;;;11.90;96839.00;;;;4990238;28;20225;-68
2024/03/07 09:29:26;;;;;;;33.43;30.77;;;;;11.00;96837.00;;;;4982929;28;20689;-71
2024/03/07 09:32:15;;;;;;;35.17;32.20;;;;;12.00;96833.00;;;;4980144;28;20593;-68
2024/03/07 09:35:07;;;;;;;46.73;42.23;;;;;11.70;96835.00;;;;4980464;28;20618;-71
2024/03/07 09:37:56;;;;;;;41.57;38.37;;;;;12.00;96828.00;;;;4968325;28;20200;-72
2024/03/07 09:40:45;;;;;;;48.13;43.63;;;;;11.60;96831.00;;;;4972105;28;20221;-67
2024/03/07 09:43:38;;;;;;;45.07;41.47;;;;;11.80;96834.00;;;;4982526;28;20250;-67
2024/03/07 09:46:29;;;;;;;42.63;39.43;;;;;11.90;96828.00;;;;4974058;28;20226;-69
2024/03/07 09:49:18;;;;;;;44.60;41.83;;;;;12.10;96841.00;;;;4966177;28;20607;-68
2024/03/07 09:52:11;;;;;;;42.73;39.40;;;;;12.30;96835.00;;;;4967959;28;20215;-70
2024/03/07 09:55:00;;;;;;;49.03;44.50;;;;;12.00;96826.00;;;;4977397;28;20621;-68
2024/03/07 09:57:50;;;;;;;56.63;51.70;;;;;12.50;96841.00;;;;4976137;28;20213;-68
2024/03/07 10:00:41;;;;;;;65.07;58.87;;;;;12.40;96838.00;;;;4978792;28;20239;-69
2024/03/07 10:03:31;;;;;;;74.27;67.50;;;;;12.70;96838.00;;;;4976483;28;20235;-68
2024/03/07 10:06:21;;;;;;;71.67;65.63;;;;;12.80;96845.00;;;;4984170;28;20194;-68
2024/03/07 10:09:13;;;;;;;66.50;61.17;;;;;12.20;96834.00;;;;4980950;28;20207;-69
2024/03/07 10:12:02;;;;;;;52.00;48.13;;;;;12.20;96838.00;;;;4972803;28;20669;-69
2024/03/07 10:14:58;;;;;;;75.77;68.07;;;;;12.90;96845.00;;;;4981550;28;20215;-69
2024/03/07 10:17:50;;;;;;;75.40;68.17;;;;;12.30;96835.00;;;;4972602;28;20203;-69
2024/03/07 10:20:42;;;;;;;87.77;79.20;;;;;12.40;96840.00;;;;4977234;28;20203;-69
2024/03/07 10:23:33;;;;;;;74.00;67.63;;;;;13.40;96846.00;;;;4967023;28;20235;-69
2024/03/07 10:26:23;;;;;;;82.00;74.90;;;;;14.00;96828.00;;;;4973505;28;20200;-69
2024/03/07 10:29:13;;;;;;;71.97;66.53;;;;;12.00;96844.00;;;;4971421;28;20583;-71
2024/03/07 10:32:03;;;;;;;45.93;42.63;;;;;13.40;96821.00;;;;4972134;28;20210;-68
2024/03/07 10:34:54;;;;;;;57.20;51.83;;;;;13.70;96831.00;;;;4975504;28;20229;-72
2024/03/07 10:37:45;;;;;;;58.13;52.90;;;;;13.30;96825.00;;;;4968867;28;20231;-67
2024/03/07 10:40:35;;;;;;;51.30;47.30;;;;;13.60;96824.00;;;;4973596;28;20210;-68
2024/03/07 10:43:26;;;;;;;49.97;46.53;;;;;13.70;96837.00;;;;4968991;28;20719;-67
2024/03/07 10:46:16;;;;;;;43.70;41.07;;;;;14.10;96839.00;;;;4970212;28;20302;-67
2024/03/07 10:49:09;;;;;;;44.63;41.37;;;;;14.00;96853.00;;;;4967448;28;20215;-68
2024/03/07 10:52:10;;;;;;;44.90;42.10;;;;;11.70;96833.00;;;;4964206;28;20207;-70
2024/03/07 10:55:10;;;;;;;40.17;36.80;;;;;12.60;96848.00;;;;4967619;28;20234;-67
2024/03/07 10:58:07;;;;;;;36.07;33.43;;;;;12.60;96853.00;;;;4966977;28;20258;-70
2024/03/07 11:00:59;;;;;;;29.57;27.40;;;;;12.20;96842.00;;;;4970411;28;20222;-68
2024/03/07 11:03:51;;;;;;;38.73;32.63;;;;;12.40;96839.00;;;;4970767;28;20238;-69
2024/03/07 11:06:41;;;;;;;33.43;27.93;;;;;12.30;96830.00;;;;4969966;28;20203;-69
2024/03/07 11:09:33;;;;;;;20.13;18.50;;;;;12.40;96822.00;;;;4976795;28;20218;-68
2024/03/07 11:12:27;;;;;;;28.23;26.00;;;;;14.30;96803.00;;;;4971712;28;20207;-68
2024/03/07 11:15:19;;;;;;;34.97;31.83;;;;;13.50;96842.00;;;;4965786;28;20223;-68
2024/03/07 11:18:09;;;;;;;25.47;23.67;;;;;12.70;96828.00;;;;4967528;28;20211;-70
2024/03/07 11:20:59;;;;;;;33.73;31.20;;;;;13.00;96846.00;;;;4966174;28;20206;-69
2024/03/07 11:23:48;;;;;;;37.90;33.67;;;;;13.30;96835.00;;;;4967721;28;20751;-70
2024/03/07 11:26:38;;;;;;;36.60;32.73;;;;;13.40;96845.00;;;;4963166;28;20212;-70
2024/03/07 11:29:52;;;;;;;31.87;29.57;;;;;12.80;96829.00;;;;4968297;28;20591;-69
2024/03/07 11:32:44;;;;;;;37.50;33.67;;;;;13.80;96846.00;;;;4964009;28;20199;-71
2024/03/07 11:35:35;;;;;;;36.30;33.67;;;;;13.20;96837.00;;;;4968128;28;20207;-70
2024/03/07 11:38:34;;;;;;;33.83;31.53;;;;;12.80;96847.00;;;;4969507;28;20858;-71
2024/03/07 11:41:23;;;;;;;48.37;45.07;;;;;12.90;96841.00;;;;4968777;28;20214;-70
2024/03/07 11:44:14;;;;;;;46.07;42.37;;;;;12.30;96845.00;;;;4968393;28;20257;-71
2024/03/07 11:47:08;;;;;;;40.43;37.90;;;;;12.00;96848.00;;;;4966767;28;20207;-71
2024/03/07 11:49:57;;;;;;;44.00;40.37;;;;;11.90;96838.00;;;;4968061;28;20214;-70
2024/03/07 11:52:47;;;;;;;40.40;36.27;;;;;11.90;96842.00;;;;4968262;28;20203;-70
2024/03/07 11:55:45;;;;;;;24.97;22.73;;;;;12.20;96835.00;;;;4972019;28;20286;-70
2024/03/07 11:58:34;;;;;;;21.63;19.90;;;;;12.20;96832.00;;;;4976649;28;20605;-69
2024/03/07 12:01:26;;;;;;;25.53;23.77;;;;;12.50;96831.00;;;;4975365;28;20199;-70
2024/03/07 12:04:16;;;;;;;31.23;29.10;;;;;12.60;96822.00;;;;4975837;28;20235;-70
2024/03/07 12:07:06;;;;;;;29.27;27.10;;;;;12.10;96822.00;;;;4971493;28;20216;-70
2024/03/07 12:09:55;;;;;;;40.60;36.07;;;;;11.50;96813.00;;;;4972149;28;20681;-70
2024/03/07 12:12:45;;;;;;;43.53;39.43;;;;;13.10;96779.00;;;;4971054;28;20530;-72
2024/03/07 12:15:36;;;;;;;43.67;40.67;;;;;13.60;96783.00;;;;4967988;28;20212;-74
2024/03/07 12:18:26;;;;;;;47.37;43.93;;;;;13.30;96809.00;;;;4969768;28;20211;-71
2024/03/07 12:21:17;;;;;;;23.23;21.90;;;;;13.30;96822.00;;;;4966427;28;20211;-73
2024/03/07 12:24:13;;;;;;;27.73;25.60;;;;;12.20;96820.00;;;;4972957;28;20239;-70
2024/03/07 12:27:09;;;;;;;29.73;27.57;;;;;13.00;96826.00;;;;4971802;28;20215;-70
2024/03/07 12:30:01;;;;;;;36.33;32.73;;;;;13.20;96807.00;;;;4969461;28;20211;-70
2024/03/07 12:32:51;;;;;;;57.93;52.83;;;;;14.50;96775.00;;;;4972314;28;20203;-71
2024/03/07 12:35:42;;;;;;;74.90;69.23;;;;;15.70;96782.00;;;;4969473;28;20226;-73
2024/03/07 12:38:35;;;;;;;76.80;71.37;;;;;14.90;96799.00;;;;4970341;28;20207;-72
2024/03/07 12:41:24;;;;;;;96.40;89.27;;;;;16.40;96817.00;;;;4967286;28;20290;-73
2024/03/07 12:44:14;;;;;;;112.10;103.97;;;;;15.50;96809.00;;;;4969833;28;20231;-71
2024/03/07 12:47:04;;;;;;;112.87;104.77;;;;;15.00;96809.00;;;;4967489;28;20210;-72
2024/03/07 12:49:53;;;;;;;81.63;75.60;;;;;15.20;96774.00;;;;4970124;28;20207;-70
2024/03/07 12:52:43;;;;;;;96.40;89.30;;;;;16.00;96750.00;;;;4973418;28;20226;-72
2024/03/07 12:55:36;;;;;;;104.80;98.27;;;;;15.30;96809.00;;;;4969327;28;20381;-71
2024/03/07 12:58:25;;;;;;;82.70;77.77;;;;;13.30;96752.00;;;;4968017;28;20215;-72
2024/03/07 13:01:15;;;;;;;89.67;84.23;;;;;15.00;96815.00;;;;4967165;28;20214;-70
2024/03/07 13:04:04;;;;;;;79.80;75.43;;;;;14.60;96798.00;;;;4966448;28;20258;-73
2024/03/07 13:06:53;;;;;;;90.90;83.53;;;;;13.60;96808.00;;;;4969125;28;20211;-72
2024/03/07 13:09:44;;;;;;;83.73;77.40;;;;;13.40;96802.00;;;;4967651;28;20222;-72
2024/03/07 13:12:33;;;;;;;80.93;75.77;;;;;14.50;96798.00;;;;4969053;28;20207;-71
2024/03/07 13:15:24;;;;;;;81.07;75.97;;;;;12.50;96791.00;;;;4968233;28;20661;-72
2024/03/07 13:18:13;;;;;;;70.33;66.23;;;;;12.70;96784.00;;;;4968942;28;20578;-71
2024/03/07 13:21:03;;;;;;;84.23;78.70;;;;;15.40;96775.00;;;;4965294;28;20210;-71
2024/03/07 13:23:53;;;;;;;94.40;87.27;;;;;14.50;96760.00;;;;4968914;28;20235;-73
2024/03/07 13:26:44;;;;;;;130.23;119.63;;;;;14.40;96819.00;;;;4968626;28;20636;-69
2024/03/07 13:29:34;;;;;;;125.27;116.33;;;;;13.30;96822.00;;;;4968378;28;20210;-70
2024/03/07 13:32:23;;;;;;;115.43;107.43;;;;;14.30;96844.00;;;;4969090;28;20703;-71
2024/03/07 13:35:12;;;;;;;72.13;66.77;;;;;11.60;96822.00;;;;4969941;28;20255;-68
2024/03/07 13:38:02;;;;;;;55.57;51.73;;;;;12.10;96840.00;;;;4968805;28;20206;-72
2024/03/07 13:40:52;;;;;;;54.73;50.17;;;;;12.10;96841.00;;;;4968018;28;20681;-72
2024/03/07 13:43:43;;;;;;;43.03;38.50;;;;;11.80;96829.00;;;;4964789;28;20242;-71
2024/03/07 13:46:32;;;;;;;35.63;32.83;;;;;12.10;96845.00;;;;4966567;28;20230;-71
2024/03/07 13:49:23;;;;;;;33.47;30.67;;;;;9.80;96828.00;;;;4965584;28;20210;-66
2024/03/07 13:52:18;;;;;;;28.50;26.43;;;;;10.90;96843.00;;;;4968131;28;20207;-71
2024/03/07 13:55:11;;;;;;;30.93;26.43;;;;;10.60;96825.00;;;;4967923;28;20877;-71